sensor_id;sensor_type;location;lat;lon;timestamp;pressure;altitude;pressure_sealevel;temperature;humidity
21395;BME280;10858;42.714;23.180;2023-04-05T00:01:42;93934.41;;;2.16;77.90
21395;BME280;10858;42.714;23.180;2023-04-05T00:04:15;93934.25;;;2.72;76.66
21395;BME280;10858;42.714;23.180;2023-04-05T00:06:46;93939.72;;;2.55;76.05
21395;BME280;10858;42.714;23.180;2023-04-05T00:09:18;93939.50;;;1.91;78.55
21395;BME280;10858;42.714;23.180;2023-04-05T00:11:46;93939.81;;;1.58;80.03
21395;BME280;10858;42.714;23.180;2023-04-05T00:14:12;93936.34;;;1.71;80.14
21395;BME280;10858;42.714;23.180;2023-04-05T00:16:38;93932.31;;;1.94;78.51
21395;BME280;10858;42.714;23.180;2023-04-05T00:19:05;93929.38;;;1.99;78.86
21395;BME280;10858;42.714;23.180;2023-04-05T00:21:31;93930.34;;;1.98;78.47
21395;BME280;10858;42.714;23.180;2023-04-05T00:23:58;93922.03;;;1.91;78.48
21395;BME280;10858;42.714;23.180;2023-04-05T00:26:25;93931.81;;;2.16;78.57
21395;BME280;10858;42.714;23.180;2023-04-05T00:28:52;93934.19;;;2.33;77.47
21395;BME280;10858;42.714;23.180;2023-04-05T00:31:18;93944.34;;;1.83;77.88
21395;BME280;10858;42.714;23.180;2023-04-05T00:33:45;93940.81;;;1.69;79.12
21395;BME280;10858;42.714;23.180;2023-04-05T00:36:15;93946.78;;;2.00;78.83
21395;BME280;10858;42.714;23.180;2023-04-05T00:38:42;93936.03;;;2.04;78.69
21395;BME280;10858;42.714;23.180;2023-04-05T00:41:09;93941.19;;;1.78;78.27
21395;BME280;10858;42.714;23.180;2023-04-05T00:43:36;93936.69;;;2.08;77.91
21395;BME280;10858;42.714;23.180;2023-04-05T00:46:03;93942.09;;;1.91;77.88
21395;BME280;10858;42.714;23.180;2023-04-05T00:48:29;93943.66;;;2.21;78.02
21395;BME280;10858;42.714;23.180;2023-04-05T00:50:57;93938.16;;;2.12;77.69
21395;BME280;10858;42.714;23.180;2023-04-05T00:53:24;93934.28;;;2.31;76.40
21395;BME280;10858;42.714;23.180;2023-04-05T00:55:53;93939.22;;;2.36;76.58
21395;BME280;10858;42.714;23.180;2023-04-05T00:58:21;93941.16;;;2.06;77.04
21395;BME280;10858;42.714;23.180;2023-04-05T01:01:03;93950.53;;;1.96;77.31
21395;BME280;10858;42.714;23.180;2023-04-05T01:03:34;93945.28;;;2.10;77.85
21395;BME280;10858;42.714;23.180;2023-04-05T01:11:30;93952.41;;;1.65;78.36
21395;BME280;10858;42.714;23.180;2023-04-05T01:13:59;93948.41;;;1.74;78.01
21395;BME280;10858;42.714;23.180;2023-04-05T01:16:26;93953.88;;;1.84;78.22
21395;BME280;10858;42.714;23.180;2023-04-05T01:18:56;93947.16;;;2.08;77.62
21395;BME280;10858;42.714;23.180;2023-04-05T01:21:48;93958.00;;;1.88;77.53
21395;BME280;10858;42.714;23.180;2023-04-05T01:27:13;93959.88;;;1.71;78.30
21395;BME280;10858;42.714;23.180;2023-04-05T01:30:12;93960.41;;;1.77;78.53
21395;BME280;10858;42.714;23.180;2023-04-05T01:35:49;93959.88;;;1.86;78.52
21395;BME280;10858;42.714;23.180;2023-04-05T01:38:18;93960.78;;;1.99;77.67
21395;BME280;10858;42.714;23.180;2023-04-05T01:40:47;93966.38;;;1.93;77.67
21395;BME280;10858;42.714;23.180;2023-04-05T01:43:17;93956.88;;;1.78;77.71
21395;BME280;10858;42.714;23.180;2023-04-05T01:45:44;93965.84;;;1.73;78.12
21395;BME280;10858;42.714;23.180;2023-04-05T01:48:11;93959.84;;;2.14;77.85
21395;BME280;10858;42.714;23.180;2023-04-05T01:50:38;93960.41;;;1.77;77.61
21395;BME280;10858;42.714;23.180;2023-04-05T01:53:07;93967.06;;;1.68;78.37
21395;BME280;10858;42.714;23.180;2023-04-05T01:55:34;93968.63;;;1.99;77.77
21395;BME280;10858;42.714;23.180;2023-04-05T01:58:00;93968.47;;;1.88;77.74
21395;BME280;10858;42.714;23.180;2023-04-05T02:00:26;93963.22;;;1.88;78.03
21395;BME280;10858;42.714;23.180;2023-04-05T02:02:53;93962.56;;;1.98;77.62
21395;BME280;10858;42.714;23.180;2023-04-05T02:05:19;93956.56;;;2.24;76.74
21395;BME280;10858;42.714;23.180;2023-04-05T02:07:45;93960.69;;;2.14;76.92
21395;BME280;10858;42.714;23.180;2023-04-05T02:10:11;93964.47;;;2.23;76.68
21395;BME280;10858;42.714;23.180;2023-04-05T02:12:38;93967.50;;;2.03;76.88
21395;BME280;10858;42.714;23.180;2023-04-05T02:15:04;93958.84;;;2.02;77.90
21395;BME280;10858;42.714;23.180;2023-04-05T02:17:31;93976.41;;;1.86;78.15
21395;BME280;10858;42.714;23.180;2023-04-05T02:20:02;93972.94;;;1.71;78.62
21395;BME280;10858;42.714;23.180;2023-04-05T02:22:30;93972.38;;;1.66;78.30
21395;BME280;10858;42.714;23.180;2023-04-05T02:24:56;93978.06;;;1.87;77.69
21395;BME280;10858;42.714;23.180;2023-04-05T02:27:22;93974.59;;;2.01;77.71
21395;BME280;10858;42.714;23.180;2023-04-05T02:29:48;93970.50;;;1.97;77.56
21395;BME280;10858;42.714;23.180;2023-04-05T02:32:14;93965.63;;;1.91;78.20
21395;BME280;10858;42.714;23.180;2023-04-05T02:34:41;93973.56;;;2.03;78.04
21395;BME280;10858;42.714;23.180;2023-04-05T02:37:08;93964.88;;;2.17;77.45
21395;BME280;10858;42.714;23.180;2023-04-05T02:39:34;93976.28;;;2.16;76.90
21395;BME280;10858;42.714;23.180;2023-04-05T02:42:00;93968.94;;;2.35;76.48
21395;BME280;10858;42.714;23.180;2023-04-05T02:44:27;93961.00;;;2.36;76.22
21395;BME280;10858;42.714;23.180;2023-04-05T02:46:53;93959.00;;;2.54;76.04
21395;BME280;10858;42.714;23.180;2023-04-05T02:49:19;93966.78;;;2.68;75.35
21395;BME280;10858;42.714;23.180;2023-04-05T02:51:46;93964.22;;;2.54;76.17
21395;BME280;10858;42.714;23.180;2023-04-05T02:54:12;93965.69;;;2.31;76.43
21395;BME280;10858;42.714;23.180;2023-04-05T02:56:38;93963.44;;;2.66;75.41
21395;BME280;10858;42.714;23.180;2023-04-05T02:59:04;93961.56;;;2.27;76.29
21395;BME280;10858;42.714;23.180;2023-04-05T03:01:30;93960.19;;;2.22;77.14
21395;BME280;10858;42.714;23.180;2023-04-05T03:03:57;93954.22;;;2.20;76.73
21395;BME280;10858;42.714;23.180;2023-04-05T03:06:23;93961.69;;;2.26;76.83
21395;BME280;10858;42.714;23.180;2023-04-05T03:08:51;93959.72;;;2.29;76.44
21395;BME280;10858;42.714;23.180;2023-04-05T03:11:18;93959.88;;;1.86;77.24
21395;BME280;10858;42.714;23.180;2023-04-05T03:13:45;93967.50;;;2.03;78.05
21395;BME280;10858;42.714;23.180;2023-04-05T03:16:12;93962.44;;;2.28;77.01
21395;BME280;10858;42.714;23.180;2023-04-05T03:18:38;93957.97;;;2.16;77.57
21395;BME280;10858;42.714;23.180;2023-04-05T03:21:04;93957.75;;;2.19;77.91
21395;BME280;10858;42.714;23.180;2023-04-05T03:23:31;93960.41;;;2.05;77.26
21395;BME280;10858;42.714;23.180;2023-04-05T03:25:58;93963.69;;;1.94;78.36
21395;BME280;10858;42.714;23.180;2023-04-05T03:28:25;93962.59;;;1.84;78.77
21395;BME280;10858;42.714;23.180;2023-04-05T03:30:51;93958.13;;;2.13;77.86
21395;BME280;10858;42.714;23.180;2023-04-05T03:33:18;93960.22;;;2.08;77.54
21395;BME280;10858;42.714;23.180;2023-04-05T03:35:45;93957.19;;;2.28;78.00
21395;BME280;10858;42.714;23.180;2023-04-05T03:38:12;93961.53;;;2.01;76.98
21395;BME280;10858;42.714;23.180;2023-04-05T03:40:39;93960.50;;;1.89;77.68
21395;BME280;10858;42.714;23.180;2023-04-05T03:43:05;93956.38;;;1.99;77.85
21395;BME280;10858;42.714;23.180;2023-04-05T03:45:31;93961.44;;;2.02;77.97
21395;BME280;10858;42.714;23.180;2023-04-05T03:47:58;93968.34;;;2.03;77.43
21395;BME280;10858;42.714;23.180;2023-04-05T03:50:26;93974.91;;;2.10;77.50
21395;BME280;10858;42.714;23.180;2023-04-05T03:52:52;93974.22;;;2.07;77.02
21395;BME280;10858;42.714;23.180;2023-04-05T03:55:18;93962.66;;;1.97;77.16
21395;BME280;10858;42.714;23.180;2023-04-05T03:57:45;93971.69;;;2.19;77.03
21395;BME280;10858;42.714;23.180;2023-04-05T04:00:12;93977.41;;;2.12;77.09
21395;BME280;10858;42.714;23.180;2023-04-05T04:02:44;93973.78;;;2.41;76.19
21395;BME280;10858;42.714;23.180;2023-04-05T04:05:14;93979.44;;;2.21;76.18
21395;BME280;10858;42.714;23.180;2023-04-05T04:07:41;93983.81;;;2.34;75.85
21395;BME280;10858;42.714;23.180;2023-04-05T04:10:09;93977.38;;;2.26;75.49
21395;BME280;10858;42.714;23.180;2023-04-05T04:12:36;93983.81;;;2.61;75.25
21395;BME280;10858;42.714;23.180;2023-04-05T04:15:03;93988.88;;;2.64;74.74
21395;BME280;10858;42.714;23.180;2023-04-05T04:17:34;93987.00;;;2.66;74.67
21395;BME280;10858;42.714;23.180;2023-04-05T04:20:02;93984.38;;;2.66;75.32
21395;BME280;10858;42.714;23.180;2023-04-05T04:22:33;93989.66;;;2.79;74.46
21395;BME280;10858;42.714;23.180;2023-04-05T04:25:08;93991.75;;;2.74;75.44
21395;BME280;10858;42.714;23.180;2023-04-05T04:27:37;93993.50;;;2.46;75.21
21395;BME280;10858;42.714;23.180;2023-04-05T04:30:11;93994.53;;;2.97;75.22
21395;BME280;10858;42.714;23.180;2023-04-05T04:32:39;93992.91;;;2.55;74.81
21395;BME280;10858;42.714;23.180;2023-04-05T04:35:22;93988.88;;;2.64;75.15
21395;BME280;10858;42.714;23.180;2023-04-05T04:38:00;93990.59;;;2.51;75.74
21395;BME280;10858;42.714;23.180;2023-04-05T04:43:11;93998.19;;;2.41;74.67
21395;BME280;10858;42.714;23.180;2023-04-05T04:45:43;94000.56;;;2.18;75.48
21395;BME280;10858;42.714;23.180;2023-04-05T04:48:12;94005.97;;;2.01;75.91
21395;BME280;10858;42.714;23.180;2023-04-05T04:50:48;94010.72;;;2.36;75.67
21395;BME280;10858;42.714;23.180;2023-04-05T04:53:17;94012.06;;;2.15;77.32
21395;BME280;10858;42.714;23.180;2023-04-05T04:55:43;94001.66;;;2.42;76.79
21395;BME280;10858;42.714;23.180;2023-04-05T04:58:11;94005.94;;;2.43;75.83
21395;BME280;10858;42.714;23.180;2023-04-05T05:00:39;94003.88;;;2.48;76.20
21395;BME280;10858;42.714;23.180;2023-04-05T05:03:09;94011.41;;;2.26;76.98
21395;BME280;10858;42.714;23.180;2023-04-05T05:05:47;94005.47;;;2.50;76.05
21395;BME280;10858;42.714;23.180;2023-04-05T05:08:13;94007.91;;;2.80;75.95
21395;BME280;10858;42.714;23.180;2023-04-05T05:10:40;94004.94;;;2.72;76.29
21395;BME280;10858;42.714;23.180;2023-04-05T05:13:07;94008.72;;;2.81;74.71
21395;BME280;10858;42.714;23.180;2023-04-05T05:15:33;93998.25;;;2.54;75.79
21395;BME280;10858;42.714;23.180;2023-04-05T05:17:59;94000.78;;;2.55;75.69
21395;BME280;10858;42.714;23.180;2023-04-05T05:20:25;93987.63;;;2.43;76.50
21395;BME280;10858;42.714;23.180;2023-04-05T05:22:53;94005.81;;;2.85;75.15
21395;BME280;10858;42.714;23.180;2023-04-05T05:25:20;94007.78;;;3.08;73.50
21395;BME280;10858;42.714;23.180;2023-04-05T05:27:50;94020.63;;;3.25;72.80
21395;BME280;10858;42.714;23.180;2023-04-05T05:30:16;94019.13;;;3.21;73.03
21395;BME280;10858;42.714;23.180;2023-04-05T05:32:43;94013.72;;;3.24;71.37
21395;BME280;10858;42.714;23.180;2023-04-05T05:35:09;94011.88;;;3.52;70.55
21395;BME280;10858;42.714;23.180;2023-04-05T05:37:35;94007.03;;;3.45;71.11
21395;BME280;10858;42.714;23.180;2023-04-05T05:40:02;94009.69;;;3.58;71.21
21395;BME280;10858;42.714;23.180;2023-04-05T05:42:30;94017.72;;;3.55;71.24
21395;BME280;10858;42.714;23.180;2023-04-05T05:45:04;94015.44;;;3.51;70.81
21395;BME280;10858;42.714;23.180;2023-04-05T05:47:31;94016.03;;;3.41;70.84
21395;BME280;10858;42.714;23.180;2023-04-05T05:49:57;94010.56;;;3.32;70.80
21395;BME280;10858;42.714;23.180;2023-04-05T05:52:23;94014.41;;;3.14;69.93
21395;BME280;10858;42.714;23.180;2023-04-05T05:54:50;94010.47;;;2.94;71.26
21395;BME280;10858;42.714;23.180;2023-04-05T05:57:16;94017.28;;;3.36;70.03
21395;BME280;10858;42.714;23.180;2023-04-05T05:59:42;94015.88;;;3.95;68.56
21395;BME280;10858;42.714;23.180;2023-04-05T06:02:08;94015.84;;;3.57;69.02
21395;BME280;10858;42.714;23.180;2023-04-05T06:04:35;94019.13;;;3.73;68.54
21395;BME280;10858;42.714;23.180;2023-04-05T06:07:02;94019.97;;;3.86;69.23
21395;BME280;10858;42.714;23.180;2023-04-05T06:09:29;94018.63;;;3.81;68.10
21395;BME280;10858;42.714;23.180;2023-04-05T06:11:55;94022.25;;;3.66;69.64
21395;BME280;10858;42.714;23.180;2023-04-05T06:14:23;94013.78;;;4.00;67.73
21395;BME280;10858;42.714;23.180;2023-04-05T06:16:49;94020.91;;;4.10;68.39
21395;BME280;10858;42.714;23.180;2023-04-05T06:19:15;94024.03;;;4.28;66.65
21395;BME280;10858;42.714;23.180;2023-04-05T06:21:41;94018.63;;;3.81;67.20
21395;BME280;10858;42.714;23.180;2023-04-05T06:24:08;94022.16;;;4.43;68.02
21395;BME280;10858;42.714;23.180;2023-04-05T06:26:34;94025.44;;;4.08;66.24
21395;BME280;10858;42.714;23.180;2023-04-05T06:29:00;94020.69;;;4.01;67.24
21395;BME280;10858;42.714;23.180;2023-04-05T06:31:31;94029.59;;;4.36;66.31
21395;BME280;10858;42.714;23.180;2023-04-05T06:33:57;94031.38;;;4.48;65.63
21395;BME280;10858;42.714;23.180;2023-04-05T06:36:23;94022.31;;;4.65;66.46
21395;BME280;10858;42.714;23.180;2023-04-05T06:38:50;94036.22;;;4.29;64.78
21395;BME280;10858;42.714;23.180;2023-04-05T06:41:16;94039.41;;;3.96;66.69
21395;BME280;10858;42.714;23.180;2023-04-05T06:43:43;94037.50;;;3.86;66.99
21395;BME280;10858;42.714;23.180;2023-04-05T06:46:09;94039.78;;;3.53;66.88
21395;BME280;10858;42.714;23.180;2023-04-05T06:48:37;94050.84;;;3.83;66.91
21395;BME280;10858;42.714;23.180;2023-04-05T06:51:04;94051.25;;;4.02;66.13
21395;BME280;10858;42.714;23.180;2023-04-05T06:53:31;94052.78;;;3.54;65.42
21395;BME280;10858;42.714;23.180;2023-04-05T06:55:58;94060.53;;;3.56;66.26
21395;BME280;10858;42.714;23.180;2023-04-05T06:58:24;94059.13;;;3.77;67.87
21395;BME280;10858;42.714;23.180;2023-04-05T07:00:52;94069.59;;;4.40;66.06
21395;BME280;10858;42.714;23.180;2023-04-05T07:03:19;94064.88;;;4.32;63.67
21395;BME280;10858;42.714;23.180;2023-04-05T07:06:03;94068.88;;;4.25;66.48
21395;BME280;10858;42.714;23.180;2023-04-05T07:08:31;94080.34;;;4.24;63.92
21395;BME280;10858;42.714;23.180;2023-04-05T07:10:57;94068.13;;;4.23;65.94
21395;BME280;10858;42.714;23.180;2023-04-05T07:13:24;94077.34;;;4.66;64.35
21395;BME280;10858;42.714;23.180;2023-04-05T07:15:51;94074.63;;;5.04;64.20
21395;BME280;10858;42.714;23.180;2023-04-05T07:18:24;94088.59;;;5.41;62.27
21395;BME280;10858;42.714;23.180;2023-04-05T07:20:50;94080.69;;;5.41;60.33
21395;BME280;10858;42.714;23.180;2023-04-05T07:23:17;94084.13;;;4.81;63.39
21395;BME280;10858;42.714;23.180;2023-04-05T07:25:43;94090.41;;;5.28;61.22
21395;BME280;10858;42.714;23.180;2023-04-05T07:28:09;94092.66;;;5.45;61.60
21395;BME280;10858;42.714;23.180;2023-04-05T07:30:36;94091.25;;;5.28;61.58
21395;BME280;10858;42.714;23.180;2023-04-05T07:33:02;94087.59;;;4.94;63.45
21395;BME280;10858;42.714;23.180;2023-04-05T07:35:28;94094.25;;;4.75;64.01
21395;BME280;10858;42.714;23.180;2023-04-05T07:37:55;94097.72;;;4.75;63.52
21395;BME280;10858;42.714;23.180;2023-04-05T07:40:21;94089.97;;;5.57;63.14
21395;BME280;10858;42.714;23.180;2023-04-05T07:42:48;94100.19;;;4.89;62.24
21395;BME280;10858;42.714;23.180;2023-04-05T07:45:14;94097.94;;;4.47;64.70
21395;BME280;10858;42.714;23.180;2023-04-05T07:47:40;94107.53;;;4.61;63.56
21395;BME280;10858;42.714;23.180;2023-04-05T07:50:07;94101.72;;;4.56;64.05
21395;BME280;10858;42.714;23.180;2023-04-05T07:52:35;94107.91;;;3.92;64.86
21395;BME280;10858;42.714;23.180;2023-04-05T07:55:01;94109.66;;;3.66;65.71
21395;BME280;10858;42.714;23.180;2023-04-05T07:57:28;94110.16;;;4.10;66.62
21395;BME280;10858;42.714;23.180;2023-04-05T07:59:54;94121.81;;;4.44;65.22
21395;BME280;10858;42.714;23.180;2023-04-05T08:02:20;94125.06;;;4.35;64.24
21395;BME280;10858;42.714;23.180;2023-04-05T08:04:46;94123.16;;;4.62;65.98
21395;BME280;10858;42.714;23.180;2023-04-05T08:07:13;94124.50;;;4.93;63.74
21395;BME280;10858;42.714;23.180;2023-04-05T08:09:39;94123.56;;;5.17;64.03
21395;BME280;10858;42.714;23.180;2023-04-05T08:12:06;94126.84;;;4.72;64.84
21395;BME280;10858;42.714;23.180;2023-04-05T08:14:32;94132.59;;;4.90;66.54
21395;BME280;10858;42.714;23.180;2023-04-05T08:16:58;94129.88;;;4.66;65.36
21395;BME280;10858;42.714;23.180;2023-04-05T08:19:24;94128.75;;;4.32;66.56
21395;BME280;10858;42.714;23.180;2023-04-05T08:21:52;94135.38;;;4.38;65.87
21395;BME280;10858;42.714;23.180;2023-04-05T08:24:18;94132.00;;;4.49;65.84
21395;BME280;10858;42.714;23.180;2023-04-05T08:26:44;94132.63;;;4.40;65.18
21395;BME280;10858;42.714;23.180;2023-04-05T08:29:11;94131.16;;;4.48;66.32
21395;BME280;10858;42.714;23.180;2023-04-05T08:31:37;94132.53;;;4.28;66.51
21395;BME280;10858;42.714;23.180;2023-04-05T08:34:04;94130.31;;;4.48;65.99
21395;BME280;10858;42.714;23.180;2023-04-05T08:36:33;94135.88;;;4.30;66.92
21395;BME280;10858;42.714;23.180;2023-04-05T08:38:59;94130.84;;;4.53;67.75
21395;BME280;10858;42.714;23.180;2023-04-05T08:41:35;94132.81;;;4.87;65.68
21395;BME280;10858;42.714;23.180;2023-04-05T08:44:09;94135.75;;;4.82;65.36
21395;BME280;10858;42.714;23.180;2023-04-05T08:46:35;94134.75;;;5.45;62.85
21395;BME280;10858;42.714;23.180;2023-04-05T08:49:06;94136.59;;;5.79;62.78
21395;BME280;10858;42.714;23.180;2023-04-05T08:51:34;94139.63;;;5.62;61.62
21395;BME280;10858;42.714;23.180;2023-04-05T08:54:01;94138.06;;;5.23;61.85
21395;BME280;10858;42.714;23.180;2023-04-05T08:56:35;94139.28;;;5.43;63.42
21395;BME280;10858;42.714;23.180;2023-04-05T08:59:06;94153.72;;;5.97;62.01
21395;BME280;10858;42.714;23.180;2023-04-05T09:01:35;94142.94;;;6.00;60.58
21395;BME280;10858;42.714;23.180;2023-04-05T09:04:11;94154.91;;;5.57;63.89
21395;BME280;10858;42.714;23.180;2023-04-05T09:06:39;94147.53;;;5.85;61.63
21395;BME280;10858;42.714;23.180;2023-04-05T09:09:07;94152.72;;;5.87;62.23
21395;BME280;10858;42.714;23.180;2023-04-05T09:11:36;94162.03;;;6.26;58.60
21395;BME280;10858;42.714;23.180;2023-04-05T09:14:04;94157.69;;;6.59;57.50
21395;BME280;10858;42.714;23.180;2023-04-05T09:16:37;94155.50;;;6.42;58.48
21395;BME280;10858;42.714;23.180;2023-04-05T09:19:04;94164.44;;;7.08;57.61
21395;BME280;10858;42.714;23.180;2023-04-05T09:22:06;94155.81;;;7.82;55.57
21395;BME280;10858;42.714;23.180;2023-04-05T09:24:43;94162.19;;;7.03;56.46
21395;BME280;10858;42.714;23.180;2023-04-05T09:27:10;94149.47;;;7.08;56.45
21395;BME280;10858;42.714;23.180;2023-04-05T09:29:42;94152.72;;;7.01;57.67
21395;BME280;10858;42.714;23.180;2023-04-05T09:32:10;94156.13;;;6.46;57.26
21395;BME280;10858;42.714;23.180;2023-04-05T09:34:38;94149.66;;;6.04;57.73
21395;BME280;10858;42.714;23.180;2023-04-05T09:39:41;94162.97;;;5.66;58.17
21395;BME280;10858;42.714;23.180;2023-04-05T09:42:13;94157.03;;;5.52;59.61
21395;BME280;10858;42.714;23.180;2023-04-05T09:47:25;94158.34;;;5.57;57.92
21395;BME280;10858;42.714;23.180;2023-04-05T09:49:56;94169.91;;;4.95;58.40
21395;BME280;10858;42.714;23.180;2023-04-05T09:52:26;94166.56;;;4.93;59.82
21395;BME280;10858;42.714;23.180;2023-04-05T09:54:55;94165.38;;;4.97;59.59
21395;BME280;10858;42.714;23.180;2023-04-05T09:57:23;94172.22;;;4.62;60.62
21395;BME280;10858;42.714;23.180;2023-04-05T09:59:54;94153.84;;;4.87;62.23
21395;BME280;10858;42.714;23.180;2023-04-05T10:02:24;94168.97;;;4.58;60.80
21395;BME280;10858;42.714;23.180;2023-04-05T10:04:51;94158.28;;;4.49;61.61
21395;BME280;10858;42.714;23.180;2023-04-05T10:07:18;94163.56;;;4.97;60.83
21395;BME280;10858;42.714;23.180;2023-04-05T10:09:46;94159.94;;;5.24;59.86
21395;BME280;10858;42.714;23.180;2023-04-05T10:12:20;94170.75;;;4.70;60.04
21395;BME280;10858;42.714;23.180;2023-04-05T10:14:46;94165.69;;;4.92;60.19
21395;BME280;10858;42.714;23.180;2023-04-05T10:17:27;94164.31;;;4.99;59.97
21395;BME280;10858;42.714;23.180;2023-04-05T10:20:16;94166.72;;;5.15;59.65
21395;BME280;10858;42.714;23.180;2023-04-05T10:31:11;94166.75;;;5.98;57.09
21395;BME280;10858;42.714;23.180;2023-04-05T10:33:44;94163.34;;;6.20;55.75
21395;BME280;10858;42.714;23.180;2023-04-05T10:39:03;94168.63;;;6.20;54.98
21395;BME280;10858;42.714;23.180;2023-04-05T10:41:38;94169.25;;;5.76;57.85
21395;BME280;10858;42.714;23.180;2023-04-05T10:44:08;94163.56;;;5.70;57.65
21395;BME280;10858;42.714;23.180;2023-04-05T10:46:36;94158.81;;;6.22;55.58
21395;BME280;10858;42.714;23.180;2023-04-05T10:51:32;94162.25;;;7.46;53.54
21395;BME280;10858;42.714;23.180;2023-04-05T10:54:02;94159.53;;;7.36;52.21
21395;BME280;10858;42.714;23.180;2023-04-05T10:56:29;94160.06;;;7.62;54.18
21395;BME280;10858;42.714;23.180;2023-04-05T10:58:58;94167.81;;;7.10;55.61
21395;BME280;10858;42.714;23.180;2023-04-05T11:01:24;94174.94;;;6.63;54.40
21395;BME280;10858;42.714;23.180;2023-04-05T11:03:52;94164.56;;;6.84;54.10
21395;BME280;10858;42.714;23.180;2023-04-05T11:09:16;94170.94;;;7.15;54.18
21395;BME280;10858;42.714;23.180;2023-04-05T11:11:45;94170.66;;;7.40;52.90
21395;BME280;10858;42.714;23.180;2023-04-05T11:14:24;94176.69;;;7.09;53.50
21395;BME280;10858;42.714;23.180;2023-04-05T11:16:53;94175.00;;;7.19;53.81
21395;BME280;10858;42.714;23.180;2023-04-05T11:22:07;94169.06;;;6.60;54.13
21395;BME280;10858;42.714;23.180;2023-04-05T11:24:50;94171.63;;;6.27;54.93
21395;BME280;10858;42.714;23.180;2023-04-05T11:27:24;94168.88;;;6.28;55.30
21395;BME280;10858;42.714;23.180;2023-04-05T11:29:54;94172.41;;;6.05;55.87
21395;BME280;10858;42.714;23.180;2023-04-05T11:32:21;94176.25;;;6.58;53.76
21395;BME280;10858;42.714;23.180;2023-04-05T11:34:59;94165.31;;;6.97;53.81
21395;BME280;10858;42.714;23.180;2023-04-05T11:37:54;94170.00;;;6.48;54.04
21395;BME280;10858;42.714;23.180;2023-04-05T11:40:35;94173.28;;;6.73;55.16
21395;BME280;10858;42.714;23.180;2023-04-05T11:43:04;94170.47;;;7.21;55.14
21395;BME280;10858;42.714;23.180;2023-04-05T11:45:33;94171.44;;;7.73;52.39
21395;BME280;10858;42.714;23.180;2023-04-05T11:48:10;94171.75;;;6.25;56.23
21395;BME280;10858;42.714;23.180;2023-04-05T11:50:38;94163.50;;;6.86;56.13
21395;BME280;10858;42.714;23.180;2023-04-05T11:53:15;94170.22;;;6.91;52.83
21395;BME280;10858;42.714;23.180;2023-04-05T11:55:43;94174.72;;;6.66;54.76
21395;BME280;10858;42.714;23.180;2023-04-05T11:58:17;94170.38;;;6.43;57.21
21395;BME280;10858;42.714;23.180;2023-04-05T12:00:45;94177.72;;;6.62;56.05
21395;BME280;10858;42.714;23.180;2023-04-05T12:03:15;94171.31;;;6.31;55.02
21395;BME280;10858;42.714;23.180;2023-04-05T12:05:52;94169.47;;;7.22;55.01
21395;BME280;10858;42.714;23.180;2023-04-05T12:08:20;94179.78;;;7.14;54.65
21395;BME280;10858;42.714;23.180;2023-04-05T12:10:59;94176.38;;;6.67;55.39
21395;BME280;10858;42.714;23.180;2023-04-05T12:13:27;94162.97;;;7.48;54.79
21395;BME280;10858;42.714;23.180;2023-04-05T12:16:00;94162.03;;;7.92;53.95
21395;BME280;10858;42.714;23.180;2023-04-05T12:18:28;94159.78;;;8.19;52.37
21395;BME280;10858;42.714;23.180;2023-04-05T12:20:55;94161.59;;;7.87;52.66
21395;BME280;10858;42.714;23.180;2023-04-05T12:23:22;94151.41;;;8.45;51.68
21395;BME280;10858;42.714;23.180;2023-04-05T12:25:49;94150.63;;;8.96;50.78
21395;BME280;10858;42.714;23.180;2023-04-05T12:28:15;94155.09;;;8.75;50.39
21395;BME280;10858;42.714;23.180;2023-04-05T12:30:55;94148.72;;;9.37;50.94
21395;BME280;10858;42.714;23.180;2023-04-05T12:33:29;94162.72;;;8.98;49.25
21395;BME280;10858;42.714;23.180;2023-04-05T12:35:57;94158.28;;;8.99;50.35
21395;BME280;10858;42.714;23.180;2023-04-05T12:38:28;94153.94;;;8.15;51.17
21395;BME280;10858;42.714;23.180;2023-04-05T12:41:00;94162.88;;;8.03;52.57
21395;BME280;10858;42.714;23.180;2023-04-05T12:43:40;94172.00;;;7.12;54.71
21395;BME280;10858;42.714;23.180;2023-04-05T12:46:11;94170.19;;;6.79;57.11
21395;BME280;10858;42.714;23.180;2023-04-05T12:48:41;94170.41;;;6.65;55.09
21395;BME280;10858;42.714;23.180;2023-04-05T12:51:15;94168.69;;;6.53;56.74
21395;BME280;10858;42.714;23.180;2023-04-05T12:53:46;94170.94;;;6.93;54.47
21395;BME280;10858;42.714;23.180;2023-04-05T12:56:17;94178.59;;;6.84;54.32
21395;BME280;10858;42.714;23.180;2023-04-05T12:58:43;94183.09;;;6.60;55.57
21395;BME280;10858;42.714;23.180;2023-04-05T13:01:13;94176.25;;;6.58;54.68
21395;BME280;10858;42.714;23.180;2023-04-05T13:03:43;94172.84;;;7.02;53.01
21395;BME280;10858;42.714;23.180;2023-04-05T13:06:10;94173.06;;;7.54;52.82
21395;BME280;10858;42.714;23.180;2023-04-05T13:08:36;94184.47;;;7.10;53.31
21395;BME280;10858;42.714;23.180;2023-04-05T13:11:02;94188.50;;;6.70;53.83
21395;BME280;10858;42.714;23.180;2023-04-05T13:13:28;94177.94;;;7.81;51.89
21395;BME280;10858;42.714;23.180;2023-04-05T13:16:00;94182.28;;;7.70;54.01
21395;BME280;10858;42.714;23.180;2023-04-05T13:18:31;94183.66;;;7.86;52.85
21395;BME280;10858;42.714;23.180;2023-04-05T13:20:58;94185.97;;;8.53;52.09
21395;BME280;10858;42.714;23.180;2023-04-05T13:23:33;94184.06;;;7.70;51.75
21395;BME280;10858;42.714;23.180;2023-04-05T13:25:59;94188.06;;;8.07;50.99
21395;BME280;10858;42.714;23.180;2023-04-05T13:28:26;94185.53;;;7.63;52.53
21395;BME280;10858;42.714;23.180;2023-04-05T13:30:54;94183.66;;;8.39;51.18
21395;BME280;10858;42.714;23.180;2023-04-05T13:33:21;94173.44;;;9.17;51.04
21395;BME280;10858;42.714;23.180;2023-04-05T13:35:47;94168.03;;;10.17;46.95
21395;BME280;10858;42.714;23.180;2023-04-05T13:38:14;94169.75;;;9.79;48.33
21395;BME280;10858;42.714;23.180;2023-04-05T13:40:40;94171.34;;;9.61;48.04
21395;BME280;10858;42.714;23.180;2023-04-05T13:43:06;94175.00;;;8.37;49.83
21395;BME280;10858;42.714;23.180;2023-04-05T13:45:33;94192.97;;;7.14;53.98
21395;BME280;10858;42.714;23.180;2023-04-05T13:47:59;94185.44;;;6.98;54.46